Time;durP1;ratioP1;P1;durP2;ratioP2;P2;SDS_P1;SDS_P2;PMS_P1;PMS_P2;Temp;Humidity;BMP_temperature;BMP_pressure;BME280_temperature;BME280_humidity;BME280_pressure;Samples;Min_cycle;Max_cycle;Signal;HPM_P1;HPM_P2
2023/02/18 00:00:36;;;;;;;;;0.00;0.00;;;;;21.51;44.80;102661.94;5037000;28;47343;-73
2023/02/18 00:03:01;;;;;;;;;0.33;0.00;;;;;21.52;44.48;102660.13;5036841;28;45514;-72
2023/02/18 00:05:28;;;;;;;;;0.00;0.00;;;;;21.51;44.54;102655.81;5037044;28;45405;-72
2023/02/18 00:07:53;;;;;;;;;0.00;0.00;;;;;21.52;44.60;102660.97;5019279;28;45518;-72
2023/02/18 00:10:19;;;;;;;;;0.00;0.00;;;;;21.50;44.26;102654.97;5036268;28;46271;-72
2023/02/18 00:12:44;;;;;;;;;0.00;0.00;;;;;21.51;44.25;102653.16;5036942;28;45363;-72
2023/02/18 00:15:10;;;;;;;;;0.00;0.00;;;;;21.49;44.96;102649.81;5036717;28;45442;-73
2023/02/18 00:17:35;;;;;;;;;1.00;0.00;;;;;21.48;44.23;102650.78;5037008;28;45355;-72
2023/02/18 00:20:01;;;;;;;;;0.00;0.00;;;;;21.48;44.36;102645.47;5036520;28;47148;-72
2023/02/18 00:22:26;;;;;;;;;0.00;0.00;;;;;21.47;44.46;102652.56;5036777;28;45244;-72
2023/02/18 00:24:52;;;;;;;;;0.00;0.00;;;;;21.43;44.48;102645.88;5036579;28;45393;-72
2023/02/18 00:27:17;;;;;;;;;0.00;0.00;;;;;21.46;44.18;102653.56;5018880;28;45460;-72
2023/02/18 00:29:43;;;;;;;;;0.00;0.00;;;;;21.34;44.76;102626.31;5036377;28;46243;-73
2023/02/18 00:32:08;;;;;;;;;0.00;0.00;;;;;21.42;44.25;102638.06;5036713;28;45362;-73
2023/02/18 00:34:33;;;;;;;;;0.00;0.00;;;;;21.45;44.39;102637.78;5036415;28;45367;-73
2023/02/18 00:36:59;;;;;;;;;0.00;0.00;;;;;21.45;44.25;102640.44;5036811;28;45161;-72
2023/02/18 00:39:24;;;;;;;;;0.00;0.00;;;;;21.42;44.58;102635.44;5035922;28;46974;-72
2023/02/18 00:41:49;;;;;;;;;0.00;0.00;;;;;21.37;44.35;102628.69;5036389;28;45585;-72
2023/02/18 00:44:15;;;;;;;;;0.00;0.00;;;;;21.44;44.04;102644.91;5036624;28;45383;-72
2023/02/18 00:46:40;;;;;;;;;0.00;0.00;;;;;21.44;44.48;102638.78;5036500;28;45225;-72
2023/02/18 00:49:06;;;;;;;;;0.00;0.00;;;;;21.38;44.40;102626.91;5036195;28;45408;-72
2023/02/18 00:51:32;;;;;;;;;0.00;0.00;;;;;21.44;43.96;102642.28;5036265;28;45498;-72
2023/02/18 00:53:58;;;;;;;;;0.00;0.00;;;;;21.39;44.11;102628.59;5036006;28;45370;-72
2023/02/18 00:56:23;;;;;;;;;0.00;0.00;;;;;21.44;44.33;102629.03;5036218;28;45334;-72
2023/02/18 00:58:49;;;;;;;;;0.00;0.00;;;;;21.43;44.29;102635.28;5034405;28;45387;-72
2023/02/18 01:01:14;;;;;;;;;0.00;0.00;;;;;21.43;43.92;102632.63;5036134;28;45355;-72
2023/02/18 01:03:41;;;;;;;;;0.00;0.00;;;;;21.43;44.24;102635.28;5036157;28;45342;-72
2023/02/18 01:06:08;;;;;;;;;0.00;0.00;;;;;21.43;43.86;102632.63;5036125;28;45403;-72
2023/02/18 01:08:34;;;;;;;;;0.00;0.00;;;;;21.32;43.93;102615.03;5017692;28;46275;-72
2023/02/18 01:11:00;;;;;;;;;0.00;0.00;;;;;21.38;43.81;102627.75;5035944;28;45389;-72
2023/02/18 01:13:27;;;;;;;;;0.00;0.00;;;;;21.42;44.04;102633.59;5036037;28;45420;-73
2023/02/18 01:15:52;;;;;;;;;0.00;0.00;;;;;;;;5035898;28;45418;-72
2023/02/18 01:18:19;;;;;;;;;0.00;0.00;;;;;21.42;44.04;102635.44;5035787;28;46236;-72
2023/02/18 01:20:44;;;;;;;;;0.00;0.00;;;;;21.39;43.83;102625.94;5035778;28;45382;-72
2023/02/18 01:23:11;;;;;;;;;0.00;0.00;;;;;21.36;44.20;102616.44;5035576;28;45394;-73
2023/02/18 01:25:37;;;;;;;;;0.00;0.00;;;;;21.42;44.24;102622.19;5036036;28;45292;-72
2023/02/18 01:28:04;;;;;;;;;0.00;0.00;;;;;21.36;44.04;102619.09;5035599;28;46115;-72
2023/02/18 01:30:30;;;;;;;;;0.00;0.00;;;;;21.40;44.17;102624.94;5035473;28;45387;-72
2023/02/18 01:32:56;;;;;;;;;0.00;0.00;;;;;21.40;44.13;102624.94;5035789;28;45261;-73
2023/02/18 01:35:23;;;;;;;;;0.00;0.00;;;;;21.39;43.88;102629.41;5017661;28;45437;-72
2023/02/18 01:37:48;;;;;;;;;0.00;0.00;;;;;21.37;43.85;102617.28;5035121;28;45927;-72
2023/02/18 01:40:17;;;;;;;;;0.00;0.00;;;;;21.38;44.17;102619.81;5035474;28;45294;-72
2023/02/18 01:42:42;;;;;;;;;0.67;0.00;;;;;21.36;44.15;102616.44;5035821;28;45363;-72
2023/02/18 01:45:41;;;;;;;;;0.00;0.00;;;;;21.37;44.17;102614.63;5035652;28;45263;-72
2023/02/18 01:48:12;;;;;;;;;0.00;0.00;;;;;21.36;44.20;102608.50;5035443;28;46419;-72
2023/02/18 01:50:42;;;;;;;;;0.00;0.00;;;;;21.36;43.74;102612.97;5017635;28;45335;-72
2023/02/18 01:53:08;;;;;;;;;0.00;0.00;;;;;21.35;44.29;102609.47;5035081;28;45413;-72
2023/02/18 01:55:35;;;;;;;;;0.00;0.00;;;;;21.34;44.33;102613.06;5035423;28;45450;-72
2023/02/18 01:58:02;;;;;;;;;0.00;0.00;;;;;21.31;43.99;102605.41;5035315;28;46205;-72
2023/02/18 02:00:27;;;;;;;;;0.00;0.00;;;;;21.34;44.15;102607.78;5035237;28;45430;-73
2023/02/18 02:02:53;;;;;;;;;0.00;0.00;;;;;21.29;43.67;102600.25;5035392;28;45176;-72
2023/02/18 02:05:20;;;;;;;;;0.00;0.00;;;;;21.32;43.91;102601.78;5035274;28;45403;-72
2023/02/18 02:07:49;;;;;;;;;0.00;0.00;;;;;21.36;44.08;102608.50;5034861;28;47600;-72
2023/02/18 02:10:15;;;;;;;;;0.67;0.67;;;;;21.35;43.53;102601.53;5037402;28;45372;-72
2023/02/18 02:13:13;;;;;;;;;0.00;0.00;;;;;21.37;43.97;102606.69;5038750;28;45318;-73
2023/02/18 02:15:44;;;;;;;;;0.00;0.00;;;;;21.36;43.78;102613.81;5035474;28;45378;-72
2023/02/18 02:18:27;;;;;;;;;0.00;0.00;;;;;21.38;43.54;102616.31;5038621;28;46303;-72
2023/02/18 02:21:11;;;;;;;;;0.00;0.00;;;;;21.37;43.83;102604.03;5020304;28;45368;-72
2023/02/18 02:24:11;;;;;;;;;0.33;0.00;;;;;21.36;43.57;102600.56;5038677;28;45414;-72
2023/02/18 02:26:58;;;;;;;;;0.00;0.00;;;;;21.37;44.01;102609.31;5038700;28;45369;-72
2023/02/18 02:29:53;;;;;;;;;0.00;0.00;;;;;21.37;43.93;102599.56;5038325;28;45606;-72
2023/02/18 02:32:45;;;;;;;;;0.00;0.00;;;;;21.37;43.54;102601.38;5038330;28;45329;-72
2023/02/18 02:35:20;;;;;;;;;0.00;0.00;;;;;21.36;43.80;102597.91;5037817;28;45477;-72
2023/02/18 02:37:52;;;;;;;;;0.00;0.00;;;;;21.36;43.85;102600.56;5038441;28;45290;-72
2023/02/18 02:40:18;;;;;;;;;0.00;0.00;;;;;21.35;43.86;102590.94;5038060;28;46307;-72
2023/02/18 02:43:10;;;;;;;;;0.00;0.00;;;;;21.34;43.52;102589.25;5038338;28;45400;-72
2023/02/18 02:45:50;;;;;;;;;0.00;0.00;;;;;21.35;43.55;102579.50;5038311;28;45346;-72
2023/02/18 02:48:44;;;;;;;;;0.00;0.00;;;;;21.33;43.68;102577.00;5038047;28;45375;-72
2023/02/18 02:51:17;;;;;;;;;0.00;0.00;;;;;21.26;43.82;102562.63;4956481;28;46204;-72
2023/02/18 02:53:43;;;;;;;;;1.00;0.00;;;;;21.34;43.77;102570.72;4956733;28;45512;-72
2023/02/18 02:56:15;;;;;;;;;0.00;0.00;;;;;21.33;43.91;102576.16;4957111;28;45378;-72
2023/02/18 02:58:43;;;;;;;;;0.00;0.00;;;;;21.27;43.63;102565.13;4940857;28;45456;-72
2023/02/18 03:01:26;;;;;;;;;0.00;0.00;;;;;21.32;43.60;102569.16;4956750;28;46259;-72
2023/02/18 03:04:23;;;;;;;;;0.00;0.00;;;;;21.32;43.60;102566.53;4956263;28;45561;-72
2023/02/18 03:07:06;;;;;;;;;0.00;0.00;;;;;21.32;43.93;102566.53;4939597;28;45449;-72
2023/02/18 03:09:55;;;;;;;;;0.00;0.00;;;;;21.31;43.75;102571.00;4937396;28;45404;-72
2023/02/18 03:12:58;;;;;;;;;0.00;0.00;;;;;21.30;43.45;102558.72;4936340;28;45401;-72
2023/02/18 03:15:30;;;;;;;;;0.00;0.00;;;;;21.29;43.66;102560.53;4937015;28;45375;-72
2023/02/18 03:18:20;;;;;;;;;0.00;0.00;;;;;21.31;43.80;102564.88;4936973;28;45318;-72
2023/02/18 03:20:50;;;;;;;;;0.00;0.00;;;;;21.31;43.74;102559.56;4936430;28;45573;-72
2023/02/18 03:23:21;;;;;;;;;0.00;0.00;;;;;21.32;43.58;102566.53;4937154;28;46277;-72
2023/02/18 03:25:48;;;;;;;;;0.00;0.00;;;;;21.31;43.67;102559.56;4937246;28;45429;-72
2023/02/18 03:28:17;;;;;;;;;0.00;0.00;;;;;21.32;43.58;102559.44;4988634;28;45377;-72
2023/02/18 03:30:57;;;;;;;;;0.00;0.00;;;;;21.32;43.67;102566.53;5037493;28;45430;-72
2023/02/18 03:33:29;;;;;;;;;0.00;0.00;;;;;21.31;43.42;102559.56;5037027;28;46199;-72
2023/02/18 03:35:56;;;;;;;;;0.00;0.00;;;;;21.32;43.09;102556.78;5037184;28;45356;-72
2023/02/18 03:38:30;;;;;;;;;0.00;0.00;;;;;21.32;43.47;102558.56;5037352;28;45326;-72
2023/02/18 03:40:56;;;;;;;;;0.00;0.00;;;;;21.32;43.26;102556.78;5037432;28;45383;-72
2023/02/18 03:43:22;;;;;;;;;0.00;0.00;;;;;21.31;43.59;102556.91;5037143;28;46107;-72
2023/02/18 03:45:47;;;;;;;;;0.00;0.00;;;;;21.32;43.17;102554.13;5037349;28;45404;-72
2023/02/18 03:48:13;;;;;;;;;0.00;0.00;;;;;21.33;43.53;102554.97;5019087;28;45487;-72
2023/02/18 03:50:38;;;;;;;;;0.00;0.00;;;;;21.33;43.50;102562.91;5037310;28;45439;-72
2023/02/18 03:53:03;;;;;;;;;0.00;0.00;;;;;21.32;43.49;102553.28;5036387;28;46167;-72
2023/02/18 03:55:29;;;;;;;;;0.00;0.00;;;;;21.31;43.54;102547.19;5037259;28;45478;-72
2023/02/18 03:57:54;;;;;;;;;0.00;0.00;;;;;21.31;43.68;102549.81;5037162;28;45225;-72
2023/02/18 04:00:20;;;;;;;;;0.00;0.00;;;;;21.28;43.42;102542.97;5037268;28;45351;-72
2023/02/18 04:02:45;;;;;;;;;0.00;0.00;;;;;21.29;43.64;102547.28;5036459;28;46142;-72
2023/02/18 04:05:12;;;;;;;;;0.00;0.00;;;;;21.31;43.59;102543.69;5036918;28;45343;-72
2023/02/18 04:07:37;;;;;;;;;0.67;0.00;;;;;21.24;43.37;102538.06;5037285;28;45448;-72
2023/02/18 04:10:04;;;;;;;;;0.00;0.00;;;;;21.29;43.40;102544.63;5036854;28;45457;-72
2023/02/18 04:12:30;;;;;;;;;0.00;0.00;;;;;21.29;43.43;102541.16;5036715;28;46177;-72
2023/02/18 04:14:55;;;;;;;;;0.00;0.00;;;;;21.29;43.51;102544.63;5036734;28;45333;-72
2023/02/18 04:17:20;;;;;;;;;0.00;0.00;;;;;21.28;43.23;102547.44;5036636;28;45303;-72
2023/02/18 04:19:46;;;;;;;;;0.00;0.00;;;;;21.28;43.23;102550.09;5036827;28;45307;-72
2023/02/18 04:22:11;;;;;;;;;0.00;0.00;;;;;21.28;43.50;102542.97;5036680;28;46274;-72
2023/02/18 04:24:36;;;;;;;;;0.00;0.00;;;;;21.28;43.18;102542.97;5036847;28;45315;-72
2023/02/18 04:27:02;;;;;;;;;0.00;0.00;;;;;21.23;43.44;102539.91;5036876;28;45272;-72
2023/02/18 04:29:27;;;;;;;;;0.00;0.00;;;;;21.27;43.66;102543.09;5036622;28;45305;-72
2023/02/18 04:31:53;;;;;;;;;0.00;0.00;;;;;21.28;43.20;102547.44;5036144;28;47162;-72
2023/02/18 04:34:19;;;;;;;;;0.00;0.00;;;;;21.29;43.39;102542.00;5036239;28;45398;-72
2023/02/18 04:36:44;;;;;;;;;0.00;0.00;;;;;21.28;43.09;102548.28;5036854;28;45360;-72
2023/02/18 04:39:10;;;;;;;;;0.00;0.00;;;;;21.28;43.01;102540.34;5036507;28;45261;-72
2023/02/18 04:41:35;;;;;;;;;0.00;0.00;;;;;21.29;43.27;102549.94;5036282;28;45334;-72
2023/02/18 04:44:00;;;;;;;;;0.00;0.00;;;;;21.26;43.46;102536.16;5036505;28;45315;-72
2023/02/18 04:46:26;;;;;;;;;0.00;0.00;;;;;21.30;43.49;102545.50;5036063;28;45310;-72
2023/02/18 04:48:51;;;;;;;;;0.00;0.00;;;;;21.30;43.35;102550.78;5036630;28;45667;-72
2023/02/18 04:51:16;;;;;;;;;0.00;0.00;;;;;21.28;43.32;102550.09;5036380;28;46135;-72
2023/02/18 04:53:42;;;;;;;;;0.00;0.00;;;;;21.31;42.95;102547.19;5036054;28;45474;-72
2023/02/18 04:56:07;;;;;;;;;0.00;0.00;;;;;21.31;43.05;102547.19;5036353;28;45398;-72
2023/02/18 04:58:32;;;;;;;;;0.00;0.00;;;;;21.31;43.24;102539.22;5036227;28;45464;-72
2023/02/18 05:00:59;;;;;;;;;0.00;0.00;;;;;21.31;42.99;102544.53;5035696;28;47176;-72
2023/02/18 05:03:25;;;;;;;;;0.00;0.00;;;;;21.32;42.93;102540.88;5034774;28;45578;-72
2023/02/18 05:05:50;;;;;;;;;0.00;0.00;;;;;21.26;42.78;102528.22;5035893;28;45459;-72
2023/02/18 05:08:16;;;;;;;;;0.00;0.00;;;;;21.32;43.06;102540.03;5036107;28;45327;-72
2023/02/18 05:10:41;;;;;;;;;0.00;0.00;;;;;21.32;42.83;102537.41;5036013;28;45993;-72
2023/02/18 05:13:06;;;;;;;;;0.00;0.00;;;;;21.33;43.22;102539.09;5036176;28;45379;-72
2023/02/18 05:15:32;;;;;;;;;0.33;0.33;;;;;21.33;42.90;102531.16;5035758;28;45389;-72
2023/02/18 05:17:57;;;;;;;;;0.00;0.00;;;;;21.33;42.90;102529.34;5036041;28;45427;-73
2023/02/18 05:20:23;;;;;;;;;0.00;0.00;;;;;21.33;42.65;102523.19;5035890;28;45550;-72
2023/02/18 05:22:48;;;;;;;;;0.00;0.00;;;;;21.30;42.98;102521.66;5035981;28;45185;-72
2023/02/18 05:25:13;;;;;;;;;0.00;0.00;;;;;21.22;42.83;102513.53;5036011;28;45392;-72
2023/02/18 05:27:38;;;;;;;;;0.00;0.00;;;;;21.30;42.96;102529.59;5035806;28;45316;-72
2023/02/18 05:30:04;;;;;;;;;0.00;0.00;;;;;21.34;43.14;102527.53;5035128;28;46038;-72
2023/02/18 05:32:30;;;;;;;;;0.00;0.00;;;;;21.34;42.69;102527.53;5017953;28;45947;-72
2023/02/18 05:34:55;;;;;;;;;0.00;0.00;;;;;21.26;43.01;102523.72;5035433;28;45339;-72
2023/02/18 05:37:20;;;;;;;;;0.00;0.00;;;;;21.22;42.78;102514.38;5035854;28;45422;-72
2023/02/18 05:39:46;;;;;;;;;0.00;0.00;;;;;21.32;43.00;102532.94;5035423;28;45449;-72
2023/02/18 05:42:11;;;;;;;;;0.00;0.00;;;;;21.31;43.31;102531.28;5035669;28;45338;-72
2023/02/18 05:44:37;;;;;;;;;0.00;0.00;;;;;21.22;43.04;102514.38;5034902;28;45386;-72
2023/02/18 05:47:06;;;;;;;;;0.00;0.00;;;;;21.26;43.38;102517.63;5017692;28;45433;-72
2023/02/18 05:49:32;;;;;;;;;2.67;0.00;;;;;21.30;42.92;102521.66;5035400;28;46183;-72
2023/02/18 05:51:58;;;;;;;;;0.00;0.00;;;;;21.29;43.03;102518.16;5035431;28;45221;-72
2023/02/18 05:54:24;;;;;;;;;0.00;0.00;;;;;21.29;43.18;102526.13;5035477;28;45398;-72
2023/02/18 05:56:50;;;;;;;;;0.00;0.00;;;;;21.29;42.87;102515.53;5035650;28;45276;-72
2023/02/18 05:59:16;;;;;;;;;0.00;0.00;;;;;21.31;43.04;102511.91;5034865;28;46392;-72
2023/02/18 06:01:41;;;;;;;;;0.00;0.00;;;;;21.30;43.01;102511.06;5035307;28;45680;-72
2023/02/18 06:04:07;;;;;;;;;0.33;0.33;;;;;21.30;43.27;102503.13;5035655;28;45354;-81
2023/02/18 06:06:33;;;;;;;;;0.00;0.00;;;;;21.28;43.00;102503.28;5035219;28;45630;-74
2023/02/18 06:08:58;;;;;;;;;0.00;0.00;;;;;21.31;43.32;102501.31;5028153;28;46172;-72
2023/02/18 06:11:24;;;;;;;;;0.00;0.00;;;;;21.22;43.35;102485.28;5030513;28;45505;-72
2023/02/18 06:13:49;;;;;;;;;0.00;0.00;;;;;21.32;43.07;102495.03;5016233;28;45415;-75
2023/02/18 06:16:14;;;;;;;;;1.00;0.00;;;;;21.34;42.92;102501.88;5034160;28;45466;-72
2023/02/18 06:18:40;;;;;;;;;0.00;0.00;;;;;21.35;43.32;102494.78;5034289;28;46140;-72
2023/02/18 06:21:05;;;;;;;;;0.00;0.00;;;;;21.36;43.34;102502.59;5033311;28;45425;-73
2023/02/18 06:23:30;;;;;;;;;0.00;0.00;;;;;21.37;43.26;102496.31;5016503;28;45544;-73
2023/02/18 06:25:56;;;;;;;;;0.00;0.00;;;;;21.34;42.82;102488.63;5027126;28;45611;-72
2023/02/18 06:28:21;;;;;;;;;1.00;1.00;;;;;21.36;42.82;102494.66;5027927;28;45469;-73
2023/02/18 06:30:47;;;;;;;;;0.67;0.00;;;;;21.38;42.83;102489.22;5033317;28;45509;-73
2023/02/18 06:33:12;;;;;;;;;0.00;0.00;;;;;21.28;43.25;102481.25;5036789;28;45349;-73
2023/02/18 06:35:37;;;;;;;;;0.00;0.00;;;;;21.38;43.20;102489.22;5034339;28;45384;-73
2023/02/18 06:38:03;;;;;;;;;0.00;0.00;;;;;21.38;43.27;102492.72;5033145;28;46239;-73
2023/02/18 06:40:28;;;;;;;;;1.00;0.00;;;;;21.09;42.76;102445.81;5033345;28;45461;-73
2023/02/18 06:42:54;;;;;;;;;1.00;0.00;;;;;21.40;42.85;102493.41;5033144;28;46049;-73
2023/02/18 06:45:20;;;;;;;;;0.00;0.00;;;;;21.33;42.98;102478.19;5034261;28;45391;-73
2023/02/18 06:47:45;;;;;;;;;0.00;0.00;;;;;21.34;42.83;102477.22;5033949;28;47102;-73
2023/02/18 06:50:10;;;;;;;;;0.00;0.00;;;;;21.43;42.77;102510.81;5034113;28;45352;-73
2023/02/18 06:52:36;;;;;;;;;0.00;0.00;;;;;21.44;42.89;102503.72;5033932;28;45383;-73
2023/02/18 06:55:06;;;;;;;;;0.00;0.00;;;;;21.45;43.28;102508.03;5033950;28;45378;-73
2023/02/18 06:57:32;;;;;;;;;0.33;0.00;;;;;21.44;42.76;102503.72;5035916;28;47321;-73
2023/02/18 06:59:57;;;;;;;;;0.00;0.00;;;;;21.44;43.28;102504.56;5019392;28;45280;-73
2023/02/18 07:02:22;;;;;;;;;0.00;0.00;;;;;21.44;42.92;102509.03;5037483;28;45243;-73
2023/02/18 07:04:48;;;;;;;;;0.00;0.00;;;;;21.39;42.72;102504.13;5037372;28;45204;-73
2023/02/18 07:07:13;;;;;;;;;0.00;0.00;;;;;21.45;42.71;102514.16;5037166;28;46109;-73
2023/02/18 07:09:38;;;;;;;;;2.67;0.00;;;;;21.45;42.75;102506.22;5037258;28;45484;-73
2023/02/18 07:12:04;;;;;;;;;0.00;0.00;;;;;21.46;43.05;102517.66;5036920;28;45801;-74
2023/02/18 07:14:29;;;;;;;;;0.00;0.00;;;;;21.46;43.09;102515.03;5037135;28;45619;-73
2023/02/18 07:16:55;;;;;;;;;0.00;0.00;;;;;21.46;43.19;102520.31;5037013;28;45454;-73
2023/02/18 07:19:20;;;;;;;;;0.00;0.00;;;;;21.47;43.21;102514.03;5037051;28;45502;-73
2023/02/18 07:21:45;;;;;;;;;0.00;0.00;;;;;21.45;43.18;102519.47;5037083;28;45777;-73
2023/02/18 07:24:11;;;;;;;;;0.00;0.00;;;;;21.42;42.79;102509.13;5037030;28;45434;-73
2023/02/18 07:26:36;;;;;;;;;1.00;1.00;;;;;21.46;43.16;102515.84;5036510;28;46074;-73
2023/02/18 07:29:01;;;;;;;;;1.00;0.00;;;;;21.46;43.07;102509.72;5036983;28;45557;-73
2023/02/18 07:31:27;;;;;;;;;0.00;0.00;;;;;21.47;43.22;102521.97;5036552;28;45516;-73
2023/02/18 07:33:53;;;;;;;;;0.00;0.00;;;;;21.47;43.40;102519.31;5036993;28;45335;-74
2023/02/18 07:36:18;;;;;;;;;0.00;0.00;;;;;21.45;43.14;102518.63;5019082;28;46885;-73
2023/02/18 07:38:43;;;;;;;;;0.00;0.00;;;;;21.45;43.25;102518.63;5037192;28;45433;-74
2023/02/18 07:41:21;;;;;;;;;0.00;0.00;;;;;21.44;43.21;102520.47;5037175;28;45435;-74
2023/02/18 07:43:47;;;;;;;;;0.00;0.00;;;;;21.45;43.14;102521.28;5037193;28;45572;-74
2023/02/18 07:46:12;;;;;;;;;0.00;0.00;;;;;21.45;42.91;102529.22;5037090;28;46282;-74
2023/02/18 07:48:37;;;;;;;;;0.00;0.00;;;;;21.44;42.94;102533.69;5037257;28;45312;-74
2023/02/18 07:51:08;;;;;;;;;0.00;0.00;;;;;21.44;42.90;102528.41;5037496;28;45271;-73
2023/02/18 07:53:34;;;;;;;;;0.00;0.00;;;;;21.40;43.16;102532.28;5036834;28;45389;-73
2023/02/18 07:56:00;;;;;;;;;0.00;0.00;;;;;21.45;43.29;102538.00;5036796;28;46182;-72
2023/02/18 07:58:29;;;;;;;;;0.00;0.00;;;;;21.45;42.77;102547.75;5036892;28;45457;-72
2023/02/18 08:00:55;;;;;;;;;0.00;0.00;;;;;;;;5037170;28;45430;-72
2023/02/18 08:03:22;;;;;;;;;0.00;0.00;;;;;21.45;43.55;102548.59;5036838;28;45219;-74
2023/02/18 08:05:49;;;;;;;;;0.00;0.00;;;;;21.46;42.80;102550.28;5036646;28;46177;-74
2023/02/18 08:08:19;;;;;;;;;0.00;0.00;;;;;21.40;43.39;102542.88;5035981;28;45438;-73
2023/02/18 08:10:46;;;;;;;;;0.00;0.00;;;;;21.48;43.10;102550.13;5036958;28;45330;-75
2023/02/18 08:13:12;;;;;;;;;0.33;0.00;;;;;21.48;42.92;102548.34;5036901;28;45169;-74
2023/02/18 08:15:38;;;;;;;;;0.00;0.00;;;;;21.47;42.87;102549.28;5036576;28;47617;-72
2023/02/18 08:18:04;;;;;;;;;0.00;0.00;;;;;21.45;43.58;102545.94;5033756;28;45460;-74
2023/02/18 08:20:30;;;;;;;;;0.00;0.00;;;;;21.44;43.24;102543.44;5035794;28;45336;-74
2023/02/18 08:22:55;;;;;;;;;1.33;0.00;;;;;21.39;43.29;102544.66;5034978;28;45522;-74
2023/02/18 08:25:20;;;;;;;;;0.00;0.00;;;;;21.46;43.59;102552.09;5036017;28;45375;-75
2023/02/18 08:27:46;;;;;;;;;0.00;0.00;;;;;21.42;43.42;102554.16;5035889;28;45536;-74
2023/02/18 08:30:11;;;;;;;;;0.00;0.00;;;;;21.45;43.16;102558.34;5036367;28;45521;-74
2023/02/18 08:32:37;;;;;;;;;0.00;0.00;;;;;21.44;43.33;102562.81;5035322;28;45554;-74
2023/02/18 08:35:03;;;;;;;;;0.00;0.00;;;;;21.38;43.73;102553.59;5035758;28;45940;-74
2023/02/18 08:37:29;;;;;;;;;0.00;0.00;;;;;21.43;43.62;102566.44;5035349;28;45343;-74
2023/02/18 08:39:54;;;;;;;;;0.00;0.00;;;;;;;;5036335;28;45482;-73
2023/02/18 08:42:19;;;;;;;;;0.00;0.00;;;;;21.42;43.50;102569.22;5035581;28;45402;-73
2023/02/18 08:44:44;;;;;;;;;2.00;0.00;;;;;21.40;43.27;102567.53;5036244;28;46028;-73
2023/02/18 08:47:10;;;;;;;;;0.67;0.00;;;;;21.40;43.72;102574.66;5035267;28;45529;-74
2023/02/18 08:49:35;;;;;;;;;0.00;0.00;;;;;21.40;43.80;102567.53;5036202;28;45577;-73
2023/02/18 08:52:02;;;;;;;;;0.00;0.00;;;;;21.33;43.53;102561.09;5035348;28;45422;-73
2023/02/18 08:54:27;;;;;;;;;0.00;0.00;;;;;21.37;43.67;102570.44;5017651;28;47261;-73
2023/02/18 08:56:56;;;;;;;;;0.00;0.00;;;;;21.32;43.38;102561.22;5035284;28;45486;-73
2023/02/18 08:59:23;;;;;;;;;0.00;0.00;;;;;21.24;43.36;102544.22;5036034;28;45424;-73
2023/02/18 09:01:49;;;;;;;;;0.00;0.00;;;;;21.36;43.42;102563.50;5017253;28;45440;-74
2023/02/18 09:04:14;;;;;;;;;0.00;0.00;;;;;21.39;43.73;102565.84;5035388;28;47171;-73
2023/02/18 09:06:40;;;;;;;;;0.67;0.00;;;;;21.39;43.48;102570.34;5034765;28;45364;-73
2023/02/18 09:09:05;;;;;;;;;0.00;0.00;;;;;21.39;43.57;102570.34;5035717;28;45272;-73
2023/02/18 09:11:33;;;;;;;;;0.00;0.00;;;;;21.29;43.50;102554.38;5035404;28;45243;-77
2023/02/18 09:14:01;;;;;;;;;0.00;0.00;;;;;21.39;43.13;102568.50;5035387;28;45502;-73
2023/02/18 09:16:28;;;;;;;;;0.00;0.00;;;;;21.35;43.26;102560.97;5035493;28;45258;-75
2023/02/18 09:18:55;;;;;;;;;0.00;0.00;;;;;21.38;43.57;102566.84;5035094;28;45223;-75
2023/02/18 09:21:23;;;;;;;;;0.00;0.00;;;;;20.99;43.29;102540.16;5035669;28;45359;-76
2023/02/18 09:23:49;;;;;;;;;0.33;0.00;;;;;21.35;43.06;102568.91;5034753;28;45689;-74
2023/02/18 09:26:17;;;;;;;;;0.00;0.00;;;;;21.38;43.36;102576.59;5035720;28;45456;-74
2023/02/18 09:28:43;;;;;;;;;0.00;0.00;;;;;21.38;43.22;102568.66;5035712;28;45377;-74
2023/02/18 09:31:11;;;;;;;;;0.00;0.00;;;;;21.38;43.22;102566.00;5035646;28;45288;-73
2023/02/18 09:33:39;;;;;;;;;1.67;0.00;;;;;21.39;43.28;102567.69;5035344;28;46021;-74
2023/02/18 09:36:05;;;;;;;;;0.00;0.00;;;;;21.39;43.58;102570.34;5035007;28;45426;-74
2023/02/18 09:38:32;;;;;;;;;0.00;0.00;;;;;21.35;43.74;102558.31;5035686;28;45459;-73
2023/02/18 09:41:00;;;;;;;;;0.00;0.00;;;;;21.39;43.15;102579.09;5035733;28;45231;-74
2023/02/18 09:43:42;;;;;;;;;0.00;0.00;;;;;21.37;43.38;102574.91;5035323;28;46147;-74
2023/02/18 09:46:18;;;;;;;;;1.67;0.00;;;;;21.38;43.28;102577.44;5035446;28;45292;-74
2023/02/18 09:48:46;;;;;;;;;2.00;0.00;;;;;21.37;43.60;102586.34;5035526;28;45298;-74
2023/02/18 09:51:14;;;;;;;;;0.00;0.00;;;;;21.37;43.77;102585.50;5035102;28;45496;-74
2023/02/18 09:53:43;;;;;;;;;0.00;0.00;;;;;21.36;43.42;102581.19;5035240;28;45422;-74
2023/02/18 09:56:13;;;;;;;;;1.00;0.00;;;;;21.31;43.15;102580.75;5034388;28;45322;-74
2023/02/18 09:58:41;;;;;;;;;1.00;0.00;;;;;21.36;43.68;102589.97;5035559;28;45401;-74
2023/02/18 10:01:34;;;;;;;;;0.00;0.00;;;;;21.36;43.14;102583.84;5035285;28;45506;-74
2023/02/18 10:04:06;;;;;;;;;1.00;0.00;;;;;21.36;43.56;102589.97;5034780;28;46337;-74
2023/02/18 10:06:33;;;;;;;;;0.00;0.00;;;;;21.26;43.30;102571.38;5035016;28;45397;-74
2023/02/18 10:09:03;;;;;;;;;0.00;0.00;;;;;21.36;42.79;102584.69;5034938;28;45403;-74
2023/02/18 10:11:40;;;;;;;;;0.00;0.00;;;;;21.36;43.02;102586.47;5035244;28;45405;-76
2023/02/18 10:14:11;;;;;;;;;1.00;0.00;;;;;21.36;43.34;102589.97;5034963;28;48182;-74
2023/02/18 10:16:36;;;;;;;;;1.00;0.00;;;;;21.37;43.03;102588.13;5035020;28;45340;-74
2023/02/18 10:19:22;;;;;;;;;1.00;0.00;;;;;21.36;42.98;102589.97;5034728;28;45433;-74
2023/02/18 10:21:48;;;;;;;;;1.00;0.00;;;;;21.35;42.84;102584.78;5035213;28;45287;-74
2023/02/18 10:24:33;;;;;;;;;0.00;0.00;;;;;21.37;43.29;102585.50;5034182;28;46457;-73
2023/02/18 10:27:01;;;;;;;;;0.00;0.00;;;;;21.30;43.46;102579.91;5034517;28;45354;-75
2023/02/18 10:29:28;;;;;;;;;1.00;1.00;;;;;21.35;42.96;102585.63;5035123;28;45305;-75
2023/02/18 10:31:58;;;;;;;;;0.00;0.00;;;;;21.34;43.04;102583.94;5038104;28;45450;-74
2023/02/18 10:34:40;;;;;;;;;0.00;0.00;;;;;21.35;43.28;102585.63;5037635;28;46041;-75
2023/02/18 10:37:45;;;;;;;;;0.00;0.00;;;;;21.35;43.30;102590.09;5038436;28;45406;-75
2023/02/18 10:40:24;;;;;;;;;0.00;0.00;;;;;21.35;42.79;102584.78;5038489;28;45378;-75
2023/02/18 10:43:07;;;;;;;;;0.00;0.00;;;;;21.36;43.03;102581.19;5038420;28;45305;-75
2023/02/18 10:45:56;;;;;;;;;0.00;0.00;;;;;21.35;43.07;102596.22;5037532;28;45309;-75
2023/02/18 10:49:00;;;;;;;;;0.00;0.00;;;;;21.35;43.03;102590.94;5026814;28;45266;-74
2023/02/18 10:51:32;;;;;;;;;0.00;0.00;;;;;21.36;42.89;102586.47;4937825;28;45470;-75
2023/02/18 10:53:57;;;;;;;;;0.00;0.00;;;;;21.27;43.01;102574.88;4937861;28;45469;-75
2023/02/18 10:56:47;;;;;;;;;2.33;0.00;;;;;21.36;42.88;102605.00;4937341;28;45343;-75
2023/02/18 10:59:17;;;;;;;;;0.00;0.00;;;;;21.35;43.14;102598.03;4937597;28;45412;-75
2023/02/18 11:01:43;;;;;;;;;0.33;0.00;;;;;21.35;43.07;102598.88;4937558;28;45394;-75
2023/02/18 11:04:16;;;;;;;;;0.00;0.00;;;;;21.34;43.14;102597.19;4937376;28;45350;-75
2023/02/18 11:06:44;;;;;;;;;0.00;0.00;;;;;21.34;43.20;102606.97;4952888;28;47019;-75
2023/02/18 11:09:55;;;;;;;;;0.00;0.00;;;;;21.34;42.85;102607.78;4956349;28;45436;-75
2023/02/18 11:12:43;;;;;;;;;0.00;0.00;;;;;21.33;43.22;102613.22;4952944;28;45378;-75
2023/02/18 11:15:14;;;;;;;;;0.00;0.00;;;;;21.34;43.34;102613.06;4956709;28;45499;-74
2023/02/18 11:17:42;;;;;;;;;1.00;1.00;;;;;21.29;42.92;102608.19;4956233;28;47100;-75
2023/02/18 11:20:31;;;;;;;;;0.33;0.33;;;;;21.34;43.16;102602.47;4940366;28;45419;-75
2023/02/18 11:23:05;;;;;;;;;0.00;0.00;;;;;21.34;42.91;102605.13;4956717;28;45450;-75
2023/02/18 11:25:39;;;;;;;;;0.00;0.00;;;;;21.29;43.32;102597.59;4940528;28;45347;-75
2023/02/18 11:28:16;;;;;;;;;0.00;0.00;;;;;21.34;43.21;102599.03;4984187;28;46168;-75
2023/02/18 11:30:45;;;;;;;;;0.00;0.00;;;;;21.34;42.93;102605.13;5026644;28;45300;-75
2023/02/18 11:33:18;;;;;;;;;0.00;0.00;;;;;21.31;43.26;102588.69;5037170;28;45508;-75
2023/02/18 11:35:52;;;;;;;;;0.00;0.00;;;;;21.35;42.69;102604.19;5037182;28;45351;-75